createdAt,value
2023-02-17T00:00:13.949Z,93.40
2023-02-17T00:03:17.325Z,93.40
2023-02-17T00:06:23.947Z,93.70
2023-02-17T00:09:27.140Z,93.90
2023-02-17T00:12:30.335Z,93.90
2023-02-17T00:15:33.592Z,94.00
2023-02-17T00:18:36.841Z,94.00
2023-02-17T00:21:41.388Z,94.30
2023-02-17T00:24:44.685Z,94.30
2023-02-17T00:27:47.878Z,94.20
2023-02-17T00:30:51.090Z,94.20
2023-02-17T00:33:56.612Z,94.00
2023-02-17T00:37:01.165Z,94.30
2023-02-17T00:40:04.686Z,94.00
2023-02-17T00:43:07.900Z,93.90
2023-02-17T00:46:11.172Z,93.90
2023-02-17T00:49:17.948Z,93.90
2023-02-17T00:52:22.540Z,93.90
2023-02-17T00:55:26.763Z,94.10
2023-02-17T00:58:30.057Z,94.20
2023-02-17T01:01:34.043Z,94.30
2023-02-17T01:04:37.276Z,94.40
2023-02-17T01:07:41.930Z,94.40
2023-02-17T01:10:46.969Z,94.40
2023-02-17T01:13:50.231Z,94.40
2023-02-17T01:16:53.418Z,94.50
2023-02-17T01:19:56.635Z,94.80
2023-02-17T01:23:01.179Z,94.80
2023-02-17T01:26:04.778Z,94.60
2023-02-17T01:29:10.915Z,94.60
2023-02-17T01:32:14.096Z,94.70
2023-02-17T01:35:17.410Z,94.70
2023-02-17T01:38:21.974Z,94.60
2023-02-17T01:41:27.794Z,94.60
2023-02-17T01:44:33.792Z,94.50
2023-02-17T01:47:37.054Z,94.60
2023-02-17T01:50:44.183Z,94.60
2023-02-17T01:53:53.385Z,94.60
2023-02-17T01:56:59.872Z,94.60
2023-02-17T02:00:03.657Z,94.60
2023-02-17T02:03:10.175Z,94.80
2023-02-17T02:06:19.859Z,94.80
2023-02-17T02:09:31.007Z,94.80
2023-02-17T02:12:35.610Z,94.90
2023-02-17T02:15:45.749Z,95.10
2023-02-17T02:18:58.501Z,95.10
2023-02-17T02:22:34.593Z,95.20
2023-02-17T02:26:25.699Z,95.10
2023-02-17T02:30:10.860Z,95.00
2023-02-17T02:33:25.603Z,95.10
2023-02-17T02:36:32.303Z,94.90
2023-02-17T02:39:39.133Z,95.00
2023-02-17T02:42:42.967Z,95.10
2023-02-17T02:45:46.196Z,95.30
2023-02-17T02:48:52.573Z,95.50
2023-02-17T02:52:04.009Z,95.40
2023-02-17T02:55:14.348Z,95.60
2023-02-17T02:58:22.700Z,95.80
2023-02-17T03:01:35.570Z,96.00
2023-02-17T03:04:47.440Z,96.10
2023-02-17T03:07:55.732Z,96.20
2023-02-17T03:10:59.049Z,96.30
2023-02-17T03:14:03.854Z,96.40
2023-02-17T03:17:07.218Z,96.50
2023-02-17T03:20:13.509Z,96.70
2023-02-17T03:23:16.812Z,96.70
2023-02-17T03:26:19.979Z,96.60
2023-02-17T03:29:23.212Z,96.70
2023-02-17T03:32:26.705Z,96.60
2023-02-17T03:35:31.337Z,96.60
2023-02-17T03:38:34.563Z,96.80
2023-02-17T03:41:37.761Z,96.50
2023-02-17T03:44:40.916Z,96.40
2023-02-17T03:47:44.096Z,96.50
2023-02-17T03:50:48.679Z,96.60
2023-02-17T03:53:52.696Z,96.60
2023-02-17T03:56:55.863Z,96.70
2023-02-17T03:59:59.341Z,96.70
2023-02-17T04:03:02.486Z,96.80
2023-02-17T04:06:08.274Z,96.70
2023-02-17T04:09:11.686Z,96.80
2023-02-17T04:12:14.853Z,96.70
2023-02-17T04:15:18.028Z,96.50
2023-02-17T04:18:21.341Z,96.50
2023-02-17T04:21:25.939Z,96.50
2023-02-17T04:24:29.139Z,96.60
2023-02-17T04:27:32.277Z,96.80
2023-02-17T04:30:36.044Z,96.80
2023-02-17T04:33:39.582Z,96.70
2023-02-17T04:36:44.420Z,96.80
2023-02-17T04:39:47.761Z,96.70
2023-02-17T04:42:50.957Z,96.80
2023-02-17T04:45:54.905Z,96.80
2023-02-17T04:48:58.140Z,96.70
2023-02-17T04:52:02.730Z,96.70
2023-02-17T04:55:06.588Z,96.70
2023-02-17T04:58:10.127Z,96.70
2023-02-17T05:01:13.367Z,96.80
2023-02-17T05:04:16.650Z,96.90
2023-02-17T05:07:21.316Z,96.80
2023-02-17T05:10:24.512Z,96.80
2023-02-17T05:13:27.795Z,96.80
2023-02-17T05:16:30.979Z,96.70
2023-02-17T05:19:34.764Z,96.70
2023-02-17T05:22:39.631Z,96.70
2023-02-17T05:25:43.249Z,96.80
2023-02-17T05:28:46.526Z,96.90
2023-02-17T05:31:49.752Z,97.10
2023-02-17T05:34:52.977Z,97.10
2023-02-17T05:37:57.517Z,97.10
2023-02-17T05:41:00.776Z,97.30
2023-02-17T05:44:04.034Z,97.40
2023-02-17T05:47:07.229Z,97.50
2023-02-17T05:50:11.038Z,97.70
2023-02-17T05:53:15.640Z,97.70
2023-02-17T05:56:18.836Z,97.90
2023-02-17T05:59:22.012Z,98.10
2023-02-17T06:02:25.220Z,98.20
2023-02-17T06:05:28.416Z,98.30
2023-02-17T06:08:32.994Z,98.50
2023-02-17T06:11:36.148Z,98.60
2023-02-17T06:14:39.433Z,98.70
2023-02-17T06:17:42.620Z,98.70
2023-02-17T06:20:46.150Z,98.80
2023-02-17T06:23:50.761Z,98.80
2023-02-17T06:26:53.948Z,99.00
2023-02-17T06:29:57.192Z,99.10
2023-02-17T06:33:00.637Z,99.10
2023-02-17T06:36:04.132Z,99.10
2023-02-17T06:39:08.832Z,99.10
2023-02-17T06:42:12.010Z,99.10
2023-02-17T06:45:15.329Z,99.00
2023-02-17T06:48:18.496Z,99.00
2023-02-17T06:51:21.652Z,99.20
2023-02-17T06:54:26.214Z,99.20
2023-02-17T06:57:29.384Z,99.00
2023-02-17T07:00:32.559Z,99.00
2023-02-17T07:03:35.718Z,98.80
2023-02-17T07:06:38.907Z,98.50
2023-02-17T07:09:43.643Z,98.30
2023-02-17T07:12:46.804Z,98.10
2023-02-17T07:15:49.948Z,98.20
2023-02-17T07:18:53.380Z,98.00
2023-02-17T07:21:56.722Z,98.10
2023-02-17T07:25:01.309Z,98.00
2023-02-17T07:28:04.503Z,97.90
2023-02-17T07:31:08.407Z,97.90
2023-02-17T07:34:11.650Z,97.60
2023-02-17T07:37:14.803Z,97.40
2023-02-17T07:40:19.589Z,97.50
2023-02-17T07:43:22.790Z,97.20
2023-02-17T07:46:26.646Z,96.30
2023-02-17T07:49:29.843Z,96.10
2023-02-17T07:52:33.037Z,96.00
2023-02-17T07:55:37.625Z,95.90
2023-02-17T07:58:43.369Z,95.70
2023-02-17T08:01:46.557Z,95.40
2023-02-17T08:04:49.789Z,94.70
2023-02-17T08:08:13.036Z,94.20
2023-02-17T08:11:35.937Z,93.80
2023-02-17T08:14:39.460Z,94.10
2023-02-17T08:17:43.162Z,93.50
2023-02-17T08:20:46.382Z,93.10
2023-02-17T08:23:49.640Z,92.60
2023-02-17T08:26:55.774Z,92.70
2023-02-17T08:29:59.049Z,92.70
2023-02-17T08:33:02.299Z,92.50
2023-02-17T08:36:08.383Z,92.20
2023-02-17T08:39:14.276Z,91.90
2023-02-17T08:42:19.827Z,91.60
2023-02-17T08:45:24.009Z,91.60
2023-02-17T08:48:27.236Z,91.40
2023-02-17T08:51:30.472Z,91.10
2023-02-17T08:54:34.708Z,90.20
2023-02-17T08:57:39.315Z,90.10
2023-02-17T09:00:42.559Z,88.80
2023-02-17T09:03:46.267Z,87.80
2023-02-17T09:06:52.001Z,84.30
2023-02-17T09:09:55.234Z,64.20
2023-02-17T09:12:59.832Z,44.30
2023-02-17T09:16:03.549Z,35.50
2023-02-17T09:19:06.976Z,27.90
2023-02-17T09:22:13.599Z,25.80
2023-02-17T09:25:20.929Z,23.20
2023-02-17T09:28:25.491Z,22.40
2023-02-17T09:31:30.383Z,21.40
2023-02-17T09:34:36.949Z,20.10
2023-02-17T09:37:40.411Z,18.80
2023-02-17T09:40:48.850Z,17.10
2023-02-17T09:43:54.035Z,18.00
2023-02-17T09:47:03.349Z,19.50
2023-02-17T09:50:09.706Z,21.00
2023-02-17T09:53:19.474Z,22.30
2023-02-17T09:56:31.511Z,23.60
2023-02-17T09:59:40.863Z,24.20
2023-02-17T10:02:52.717Z,23.50
2023-02-17T10:06:03.382Z,21.90
2023-02-17T10:09:13.289Z,19.70
2023-02-17T10:12:21.697Z,17.70
2023-02-17T10:15:28.825Z,15.70
2023-02-17T10:18:36.911Z,14.50
2023-02-17T10:21:45.383Z,14.80
2023-02-17T10:24:48.598Z,15.60
2023-02-17T10:27:57.074Z,15.60
2023-02-17T10:31:05.588Z,15.70
2023-02-17T10:34:22.003Z,14.20
2023-02-17T10:37:33.752Z,13.00
2023-02-17T10:40:37.013Z,11.90
2023-02-17T10:43:40.429Z,10.40
2023-02-17T10:46:48.541Z,10.60
2023-02-17T10:49:54.300Z,12.30
2023-02-17T10:52:58.100Z,15.00
2023-02-17T10:56:08.429Z,17.20
2023-02-17T10:59:21.771Z,18.70
2023-02-17T11:02:35.406Z,19.70
2023-02-17T11:05:38.685Z,21.00
2023-02-17T11:08:47.836Z,21.90
2023-02-17T11:11:56.221Z,22.30
2023-02-17T11:14:59.506Z,23.40
2023-02-17T11:18:12.639Z,24.50
2023-02-17T11:21:15.961Z,25.40
2023-02-17T11:24:19.546Z,26.00
2023-02-17T11:27:26.478Z,27.00
2023-02-17T11:30:31.814Z,26.80
2023-02-17T11:33:39.137Z,27.00
2023-02-17T11:36:44.954Z,27.10
2023-02-17T11:39:49.503Z,26.50
2023-02-17T11:42:58.821Z,25.60
2023-02-17T11:46:25.615Z,24.20
2023-02-17T11:50:06.124Z,23.50
2023-02-17T11:53:21.972Z,23.30
2023-02-17T11:56:31.025Z,23.50
2023-02-17T11:59:44.021Z,23.50
2023-02-17T12:03:01.858Z,23.20
2023-02-17T12:06:14.613Z,22.50
2023-02-17T12:09:25.863Z,23.20
2023-02-17T12:12:39.902Z,23.80
2023-02-17T12:15:56.970Z,24.70
2023-02-17T12:19:05.883Z,24.90
2023-02-17T12:22:19.404Z,26.20
2023-02-17T12:25:27.137Z,26.40
2023-02-17T12:28:50.912Z,26.80
2023-02-17T12:32:07.661Z,27.00
2023-02-17T12:35:18.212Z,27.00
2023-02-17T12:38:28.180Z,27.00
2023-02-17T12:41:36.094Z,26.80
2023-02-17T12:44:43.845Z,26.70
2023-02-17T12:47:55.369Z,26.60
2023-02-17T12:51:07.234Z,26.60
2023-02-17T12:54:18.794Z,26.80
2023-02-17T12:57:25.211Z,26.80
2023-02-17T13:00:35.565Z,26.70
2023-02-17T13:03:38.968Z,26.80
2023-02-17T13:06:46.595Z,26.90
2023-02-17T13:09:52.145Z,27.10
2023-02-17T13:13:02.250Z,27.30
2023-02-17T13:16:07.447Z,27.40
2023-02-17T13:19:10.830Z,27.70
2023-02-17T13:22:23.740Z,27.80
2023-02-17T13:25:37.049Z,28.00
2023-02-17T13:28:42.674Z,28.00
2023-02-17T13:31:49.121Z,28.10
2023-02-17T13:35:02.089Z,28.30
2023-02-17T13:38:05.717Z,28.40
2023-02-17T13:41:15.065Z,28.50
2023-02-17T13:44:27.476Z,29.00
2023-02-17T13:47:37.741Z,29.10
2023-02-17T13:50:46.083Z,29.40
2023-02-17T13:53:51.939Z,29.70
2023-02-17T13:56:56.875Z,29.90
2023-02-17T14:00:12.038Z,30.00
2023-02-17T14:03:21.438Z,30.50
2023-02-17T14:06:30.904Z,30.60
2023-02-17T14:09:35.482Z,31.00
2023-02-17T14:12:40.110Z,31.30
2023-02-17T14:15:55.147Z,31.60
2023-02-17T14:19:06.943Z,31.70
2023-02-17T14:22:25.253Z,32.50
2023-02-17T14:25:30.163Z,32.60
2023-02-17T14:28:34.714Z,32.40
2023-02-17T14:31:41.485Z,32.50
2023-02-17T14:34:44.968Z,32.30
2023-02-17T14:37:48.846Z,32.40
2023-02-17T14:40:53.444Z,32.60
2023-02-17T14:43:58.372Z,32.60
2023-02-17T14:47:01.803Z,32.50
2023-02-17T14:50:05.564Z,33.10
2023-02-17T14:53:13.175Z,33.30
2023-02-17T14:56:22.172Z,33.60
2023-02-17T14:59:27.319Z,33.60
2023-02-17T15:02:31.446Z,33.70
2023-02-17T15:05:35.937Z,33.70
2023-02-17T15:08:39.568Z,33.70
2023-02-17T15:11:45.731Z,34.10
2023-02-17T15:14:50.761Z,35.10
2023-02-17T15:17:54.601Z,35.50
2023-02-17T15:20:59.370Z,35.80
2023-02-17T15:24:04.151Z,36.10
2023-02-17T15:27:08.592Z,37.20
2023-02-17T15:30:17.333Z,37.50
2023-02-17T15:33:22.454Z,37.90
2023-02-17T15:36:26.873Z,38.00
2023-02-17T15:39:30.465Z,38.40
2023-02-17T15:42:33.710Z,38.30
2023-02-17T15:45:38.631Z,39.00
2023-02-17T15:48:43.803Z,39.20
2023-02-17T15:51:47.804Z,39.30
2023-02-17T15:54:50.985Z,39.70
2023-02-17T15:57:57.224Z,40.00
2023-02-17T16:01:04.289Z,40.40
2023-02-17T16:04:11.246Z,41.50
2023-02-17T16:07:14.774Z,42.10
2023-02-17T16:10:21.266Z,42.90
2023-02-17T16:13:28.154Z,43.70
2023-02-17T16:16:36.133Z,44.20
2023-02-17T16:19:39.442Z,44.60
2023-02-17T16:22:42.958Z,44.90
2023-02-17T16:25:48.961Z,45.00
2023-02-17T16:28:53.035Z,45.40
2023-02-17T16:31:57.933Z,45.60
2023-02-17T16:35:01.234Z,46.20
2023-02-17T16:38:13.804Z,46.70
2023-02-17T16:41:19.089Z,47.40
2023-02-17T16:44:29.708Z,47.60
2023-02-17T16:47:35.238Z,47.90
2023-02-17T16:50:39.319Z,48.70
2023-02-17T16:53:43.828Z,49.10
2023-02-17T16:56:49.614Z,49.70
2023-02-17T16:59:53.592Z,50.00
2023-02-17T17:03:00.110Z,50.40
2023-02-17T17:06:12.249Z,50.90
2023-02-17T17:09:18.137Z,51.30
2023-02-17T17:12:23.022Z,52.10
2023-02-17T17:15:27.994Z,52.70
2023-02-17T17:18:33.683Z,52.80
2023-02-17T17:21:38.097Z,53.20
2023-02-17T17:24:42.254Z,53.90
2023-02-17T17:27:46.489Z,54.20
2023-02-17T17:30:51.426Z,54.60
2023-02-17T17:33:56.852Z,54.90
2023-02-17T17:37:00.928Z,55.20
2023-02-17T17:40:05.621Z,55.50
2023-02-17T17:43:09.387Z,56.10
2023-02-17T17:46:17.711Z,56.50
2023-02-17T17:49:24.664Z,56.40
2023-02-17T17:52:28.769Z,56.80
2023-02-17T17:55:33.898Z,57.10
2023-02-17T17:58:39.931Z,57.70
2023-02-17T18:01:45.683Z,57.90
2023-02-17T18:04:54.503Z,58.30
2023-02-17T18:07:58.673Z,58.40
2023-02-17T18:11:02.246Z,58.60
2023-02-17T18:14:13.027Z,58.80
2023-02-17T18:17:19.546Z,59.00
2023-02-17T18:20:25.695Z,59.10
2023-02-17T18:23:33.336Z,59.70
2023-02-17T18:26:37.667Z,59.80
2023-02-17T18:29:42.506Z,60.10
2023-02-17T18:32:46.863Z,60.60
2023-02-17T18:35:53.391Z,60.90
2023-02-17T18:38:58.497Z,61.20
2023-02-17T18:42:03.313Z,61.60
2023-02-17T18:45:09.467Z,61.80
2023-02-17T18:48:13.955Z,62.30
2023-02-17T18:51:25.089Z,62.80
2023-02-17T18:54:31.742Z,63.20
2023-02-17T18:57:36.320Z,64.20
2023-02-17T19:00:41.108Z,64.70
2023-02-17T19:03:47.971Z,64.90
2023-02-17T19:06:54.160Z,64.70
2023-02-17T19:09:59.043Z,64.70
2023-02-17T19:13:03.957Z,64.90
2023-02-17T19:16:10.910Z,65.10
2023-02-17T19:19:16.225Z,66.30
2023-02-17T19:22:23.435Z,66.20
2023-02-17T19:25:28.973Z,66.70
2023-02-17T19:28:34.134Z,66.90
2023-02-17T19:31:43.066Z,66.80
2023-02-17T19:34:48.911Z,67.10
2023-02-17T19:37:54.938Z,67.70
2023-02-17T19:40:59.574Z,68.10
2023-02-17T19:44:04.567Z,68.10
2023-02-17T19:47:11.099Z,68.80
2023-02-17T19:50:17.620Z,69.10
2023-02-17T19:53:25.111Z,69.40
2023-02-17T19:56:32.641Z,69.70
2023-02-17T19:59:37.899Z,69.70
2023-02-17T20:02:44.363Z,69.90
2023-02-17T20:05:49.157Z,69.70
2023-02-17T20:08:58.557Z,70.00
2023-02-17T20:12:03.653Z,70.60
2023-02-17T20:15:09.742Z,70.80
2023-02-17T20:18:14.919Z,70.80
2023-02-17T20:21:22.135Z,71.30
2023-02-17T20:24:28.788Z,71.50
2023-02-17T20:27:33.062Z,71.60
2023-02-17T20:30:36.983Z,71.50
2023-02-17T20:33:41.485Z,71.80
2023-02-17T20:36:46.503Z,72.10
2023-02-17T20:39:54.234Z,72.50
2023-02-17T20:43:00.494Z,72.60
2023-02-17T20:46:06.724Z,72.90
2023-02-17T20:49:17.849Z,73.00
2023-02-17T20:52:22.853Z,73.30
2023-02-17T20:55:31.403Z,73.60
2023-02-17T20:58:36.358Z,73.90
2023-02-17T21:01:43.104Z,74.10
2023-02-17T21:04:48.019Z,74.40
2023-02-17T21:07:55.530Z,76.10
2023-02-17T21:11:02.849Z,76.80
2023-02-17T21:14:07.478Z,77.30
2023-02-17T21:17:11.833Z,77.60
2023-02-17T21:20:18.658Z,77.90
2023-02-17T21:23:22.972Z,78.20
2023-02-17T21:26:29.615Z,78.30
2023-02-17T21:29:34.397Z,78.30
2023-02-17T21:32:38.935Z,78.60
2023-02-17T21:35:45.060Z,79.00
2023-02-17T21:38:49.690Z,79.40
2023-02-17T21:41:55.050Z,79.30
2023-02-17T21:45:00.092Z,79.60
2023-02-17T21:48:04.405Z,79.90
2023-02-17T21:51:08.944Z,80.10
2023-02-17T21:54:12.642Z,80.30
2023-02-17T21:57:17.442Z,80.50
2023-02-17T22:00:22.451Z,80.90
2023-02-17T22:03:27.931Z,80.80
2023-02-17T22:06:35.340Z,81.00
2023-02-17T22:09:38.621Z,81.10
2023-02-17T22:12:43.178Z,81.20
2023-02-17T22:15:46.382Z,81.40
2023-02-17T22:18:49.655Z,81.90
2023-02-17T22:21:53.354Z,81.90
2023-02-17T22:24:56.684Z,82.20
2023-02-17T22:28:01.199Z,82.50
2023-02-17T22:31:04.580Z,83.10
2023-02-17T22:34:10.866Z,83.70
2023-02-17T22:37:14.039Z,83.80
2023-02-17T22:40:17.395Z,84.10
2023-02-17T22:43:22.026Z,84.20
2023-02-17T22:46:27.342Z,84.10
2023-02-17T22:49:30.540Z,84.20
2023-02-17T22:52:35.203Z,84.60
2023-02-17T22:55:38.314Z,85.00
2023-02-17T22:58:43.155Z,85.20
2023-02-17T23:01:46.746Z,85.30
2023-02-17T23:04:49.882Z,85.30
2023-02-17T23:07:53.609Z,85.30
2023-02-17T23:10:57.243Z,85.40
2023-02-17T23:14:01.780Z,85.70
2023-02-17T23:17:09.359Z,85.70
2023-02-17T23:20:13.083Z,85.80
2023-02-17T23:23:16.863Z,86.70
2023-02-17T23:26:20.064Z,87.10
2023-02-17T23:29:25.363Z,87.60
2023-02-17T23:32:28.538Z,88.30
2023-02-17T23:35:31.724Z,88.50
2023-02-17T23:38:35.238Z,88.90
2023-02-17T23:41:39.654Z,89.90
2023-02-17T23:44:44.348Z,90.10
2023-02-17T23:47:47.550Z,90.10
2023-02-17T23:50:57.318Z,90.10
2023-02-17T23:54:00.485Z,90.20
2023-02-17T23:57:04.206Z,90.30
